Time;durP1;ratioP1;P1;durP2;ratioP2;P2;SDS_P1;SDS_P2;PMS_P1;PMS_P2;Temp;Humidity;BMP_temperature;BMP_pressure;BME280_temperature;BME280_humidity;BME280_pressure;Samples;Min_cycle;Max_cycle;Signal;HPM_P1;HPM_P2
2023/10/24 00:01:01;;;;;;;0.20;0.20;;;10.40;99.90;;;;;;5004971;28;20053;-75
2023/10/24 00:03:27;;;;;;;0.10;0.10;;;10.40;99.90;;;;;;5004485;28;20132;-74
2023/10/24 00:05:53;;;;;;;0.20;0.20;;;10.30;99.90;;;;;;5027755;28;20092;-74
2023/10/24 00:08:18;;;;;;;0.10;0.10;;;10.30;99.90;;;;;;5030013;28;20135;-74
2023/10/24 00:10:44;;;;;;;0.10;0.10;;;10.30;99.90;;;;;;5010259;28;20627;-74
2023/10/24 00:13:10;;;;;;;0.20;0.20;;;10.30;99.90;;;;;;5022961;28;20060;-74
2023/10/24 00:15:36;;;;;;;0.20;0.20;;;10.30;99.90;;;;;;5030980;28;20049;-75
2023/10/24 00:18:02;;;;;;;0.10;0.10;;;10.30;99.90;;;;;;5010771;28;20405;-74
2023/10/24 00:20:28;;;;;;;0.10;0.10;;;10.30;99.90;;;;;;5032236;28;20049;-74
2023/10/24 00:22:53;;;;;;;0.10;0.10;;;10.30;99.90;;;;;;5015207;28;20052;-74
2023/10/24 00:25:19;;;;;;;0.10;0.10;;;10.30;99.90;;;;;;5034212;28;20143;-74
2023/10/24 00:27:45;;;;;;;0.10;0.10;;;10.30;99.90;;;;;;5013061;28;20045;-75
2023/10/24 00:30:11;;;;;;;0.10;0.10;;;10.30;99.90;;;;;;5028659;28;20068;-75
2023/10/24 00:32:37;;;;;;;0.10;0.10;;;10.30;99.90;;;;;;5011192;28;20153;-74
2023/10/24 00:35:03;;;;;;;0.10;0.10;;;10.30;99.90;;;;;;5005942;28;20136;-74
2023/10/24 00:37:29;;;;;;;0.10;0.10;;;10.20;99.90;;;;;;5010176;28;20481;-75
2023/10/24 00:40:10;;;;;;;0.10;0.10;;;10.20;99.90;;;;;;4989241;28;20519;-74
2023/10/24 00:42:36;;;;;;;0.10;0.10;;;10.30;99.90;;;;;;5028748;28;20054;-75
2023/10/24 00:45:02;;;;;;;0.20;0.20;;;10.30;99.90;;;;;;5031757;28;20041;-74
2023/10/24 00:47:27;;;;;;;0.10;0.10;;;10.30;99.90;;;;;;5028463;28;20052;-74
2023/10/24 00:49:53;;;;;;;0.10;0.10;;;10.30;99.90;;;;;;5014119;28;20048;-75
2023/10/24 00:52:20;;;;;;;0.10;0.10;;;10.30;99.90;;;;;;5014559;28;20091;-75
2023/10/24 00:54:46;;;;;;;0.10;0.10;;;10.30;99.90;;;;;;5014120;28;20041;-74
2023/10/24 00:57:13;;;;;;;0.20;0.20;;;10.30;99.90;;;;;;5013706;28;20072;-74
2023/10/24 00:59:39;;;;;;;0.20;0.20;;;10.30;99.90;;;;;;5012409;28;20128;-74
2023/10/24 01:02:06;;;;;;;0.10;0.10;;;10.30;99.90;;;;;;5030184;28;20046;-75
2023/10/24 01:04:33;;;;;;;0.10;0.10;;;10.30;99.90;;;;;;5013207;28;20053;-75
2023/10/24 01:06:59;;;;;;;0.20;0.20;;;10.30;99.90;;;;;;5031983;28;20116;-75
2023/10/24 01:09:25;;;;;;;0.10;0.10;;;10.30;99.90;;;;;;5010191;28;20484;-75
2023/10/24 01:11:53;;;;;;;0.10;0.10;;;10.30;99.90;;;;;;5010551;28;20033;-75
2023/10/24 01:14:19;;;;;;;0.20;0.20;;;10.30;99.90;;;;;;5007781;28;20497;-74
2023/10/24 01:16:45;;;;;;;0.10;0.10;;;10.30;99.90;;;;;;5006504;28;20083;-75
2023/10/24 01:19:12;;;;;;;0.10;0.10;;;10.40;99.90;;;;;;5010288;28;20047;-75
2023/10/24 01:21:44;;;;;;;0.68;0.68;;;10.30;99.90;;;;;;5030538;28;20042;-74
2023/10/24 01:24:15;;;;;;;0.10;0.10;;;10.30;99.90;;;;;;5029555;28;20045;-75
2023/10/24 01:26:41;;;;;;;0.10;0.10;;;10.30;99.90;;;;;;5021912;28;20045;-74
2023/10/24 01:29:11;;;;;;;0.10;0.10;;;10.30;99.90;;;;;;5028877;28;20088;-75
2023/10/24 01:31:36;;;;;;;0.20;0.20;;;10.30;99.90;;;;;;5029207;28;20041;-75
2023/10/24 01:34:03;;;;;;;0.10;0.10;;;10.40;99.90;;;;;;5011247;28;20091;-76
2023/10/24 01:36:29;;;;;;;0.10;0.10;;;10.40;99.90;;;;;;5011681;28;20045;-75
2023/10/24 01:38:55;;;;;;;0.10;0.10;;;10.40;99.90;;;;;;5012238;28;20049;-75
2023/10/24 01:41:20;;;;;;;0.10;0.10;;;10.40;99.90;;;;;;5013242;28;20037;-75
2023/10/24 01:43:47;;;;;;;0.10;0.10;;;10.40;99.90;;;;;;5028338;28;20037;-75
2023/10/24 01:46:13;;;;;;;0.25;0.25;;;10.40;99.90;;;;;;5016487;28;20053;-75
2023/10/24 01:48:38;;;;;;;0.17;0.17;;;10.40;99.90;;;;;;5029043;28;20034;-75
2023/10/24 01:51:04;;;;;;;0.10;0.10;;;10.40;99.90;;;;;;5009893;28;20072;-75
2023/10/24 01:53:30;;;;;;;0.10;0.10;;;10.40;99.90;;;;;;5004376;28;20132;-75
2023/10/24 01:55:55;;;;;;;0.20;0.20;;;10.40;99.90;;;;;;5013191;28;20041;-75
2023/10/24 01:58:21;;;;;;;0.20;0.20;;;10.40;99.90;;;;;;5009745;28;20049;-75
2023/10/24 02:00:46;;;;;;;0.10;0.10;;;10.40;99.90;;;;;;5029774;28;20049;-75
2023/10/24 02:03:12;;;;;;;0.10;0.10;;;10.40;99.90;;;;;;5027086;28;20099;-75
2023/10/24 02:05:39;;;;;;;0.10;0.10;;;10.50;99.90;;;;;;5010531;28;20040;-75
2023/10/24 02:08:04;;;;;;;0.10;0.10;;;10.40;99.90;;;;;;5031767;28;20054;-75
2023/10/24 02:10:30;;;;;;;0.10;0.10;;;10.50;99.90;;;;;;5023796;28;20056;-75
2023/10/24 02:12:56;;;;;;;0.10;0.10;;;10.40;99.90;;;;;;5027760;28;20047;-75
2023/10/24 02:15:25;;;;;;;0.10;0.10;;;10.40;99.90;;;;;;5029630;28;20168;-75
2023/10/24 02:17:51;;;;;;;0.10;0.10;;;10.50;99.90;;;;;;5021264;28;20041;-75
2023/10/24 02:20:16;;;;;;;0.20;0.20;;;10.50;99.90;;;;;;5024827;28;20048;-75
2023/10/24 02:22:42;;;;;;;0.17;0.17;;;10.40;99.90;;;;;;5026561;28;20061;-75
2023/10/24 02:25:08;;;;;;;0.10;0.10;;;10.50;99.90;;;;;;5027482;28;20049;-76
2023/10/24 02:27:35;;;;;;;0.10;0.10;;;10.40;99.90;;;;;;5011300;28;20396;-75
2023/10/24 02:30:01;;;;;;;0.10;0.10;;;10.50;99.90;;;;;;5013178;28;20098;-75
2023/10/24 02:32:27;;;;;;;0.20;0.20;;;10.40;99.90;;;;;;5006331;28;20069;-75
2023/10/24 02:34:52;;;;;;;0.20;0.20;;;10.50;99.90;;;;;;4994283;28;20074;-75
2023/10/24 02:37:19;;;;;;;0.20;0.20;;;10.50;99.90;;;;;;5013523;28;20046;-76
2023/10/24 02:39:44;;;;;;;0.10;0.10;;;10.50;99.90;;;;;;4997059;28;20045;-75
2023/10/24 02:42:10;;;;;;;0.10;0.10;;;10.50;99.90;;;;;;5009380;28;20046;-75
2023/10/24 02:44:36;;;;;;;0.15;0.15;;;10.50;99.90;;;;;;5011991;28;20038;-75
2023/10/24 02:47:02;;;;;;;0.10;0.10;;;10.50;99.90;;;;;;5010279;28;20042;-75
2023/10/24 02:49:27;;;;;;;0.15;0.15;;;10.50;99.90;;;;;;5029543;28;20087;-76
2023/10/24 02:51:53;;;;;;;0.10;0.10;;;10.50;99.90;;;;;;5009742;28;20389;-76
2023/10/24 02:54:18;;;;;;;0.10;0.10;;;10.50;99.90;;;;;;5026779;28;20539;-75
2023/10/24 02:56:44;;;;;;;0.10;0.10;;;10.60;99.90;;;;;;5028557;28;20049;-75
2023/10/24 02:59:11;;;;;;;0.20;0.20;;;10.50;99.90;;;;;;5012652;28;20068;-75
2023/10/24 03:01:37;;;;;;;0.10;0.10;;;10.60;99.90;;;;;;5010735;28;20053;-75
2023/10/24 03:04:03;;;;;;;0.10;0.10;;;10.60;99.90;;;;;;5028660;28;20461;-75
2023/10/24 03:06:29;;;;;;;0.10;0.10;;;10.60;99.90;;;;;;5011467;28;20511;-75
2023/10/24 03:08:54;;;;;;;0.20;0.20;;;10.60;99.90;;;;;;5030346;28;20072;-75
2023/10/24 03:11:24;;;;;;;0.20;0.20;;;10.60;99.90;;;;;;5028920;28;20076;-74
2023/10/24 03:13:52;;;;;;;0.20;0.20;;;10.60;99.90;;;;;;5013012;28;20053;-75
2023/10/24 03:16:18;;;;;;;0.10;0.10;;;10.60;99.90;;;;;;5029188;28;20046;-75
2023/10/24 03:18:43;;;;;;;0.10;0.10;;;10.60;99.90;;;;;;5028904;28;20389;-75
2023/10/24 03:21:09;;;;;;;0.20;0.20;;;10.70;99.90;;;;;;5030102;28;20064;-75
2023/10/24 03:23:35;;;;;;;0.20;0.20;;;10.60;99.90;;;;;;5006433;28;20052;-75
2023/10/24 03:26:05;;;;;;;0.10;0.10;;;10.70;99.90;;;;;;5008597;28;20044;-75
2023/10/24 03:28:31;;;;;;;0.10;0.10;;;10.70;99.90;;;;;;5008050;28;20046;-75
2023/10/24 03:31:07;;;;;;;0.20;0.20;;;10.70;99.90;;;;;;5024341;28;20045;-75
2023/10/24 03:33:33;;;;;;;0.10;0.10;;;10.70;99.90;;;;;;5024395;28;20050;-75
2023/10/24 03:36:00;;;;;;;0.10;0.10;;;10.70;99.90;;;;;;5023085;28;20061;-74
2023/10/24 03:38:27;;;;;;;0.15;0.15;;;10.70;99.90;;;;;;5024448;28;20045;-74
2023/10/24 03:40:53;;;;;;;0.10;0.10;;;10.70;99.90;;;;;;5010523;28;20054;-76
2023/10/24 03:43:20;;;;;;;0.10;0.10;;;10.80;99.90;;;;;;5023413;28;20171;-75
2023/10/24 03:45:45;;;;;;;0.10;0.10;;;10.70;99.90;;;;;;5028070;28;20128;-75
2023/10/24 03:48:12;;;;;;;0.10;0.10;;;10.80;99.90;;;;;;5028610;28;20179;-75
2023/10/24 03:50:38;;;;;;;0.10;0.10;;;10.70;99.90;;;;;;5019096;28;20121;-75
2023/10/24 03:53:04;;;;;;;0.20;0.20;;;10.70;99.90;;;;;;5026940;28;20048;-75
2023/10/24 03:55:31;;;;;;;0.10;0.10;;;10.80;99.90;;;;;;5012065;28;20040;-75
2023/10/24 03:57:57;;;;;;;0.10;0.10;;;10.80;99.90;;;;;;5029381;28;20045;-75
2023/10/24 04:00:23;;;;;;;0.10;0.10;;;10.80;99.90;;;;;;5011721;28;20049;-75
2023/10/24 04:02:55;;;;;;;0.20;0.20;;;10.80;99.90;;;;;;5001396;28;20073;-75
2023/10/24 04:05:21;;;;;;;0.10;0.10;;;10.80;99.90;;;;;;5008693;28;20057;-74
2023/10/24 04:07:47;;;;;;;0.10;0.10;;;10.80;99.90;;;;;;5028678;28;20050;-75
2023/10/24 04:10:14;;;;;;;0.20;0.20;;;10.90;99.90;;;;;;5028527;28;20045;-75
2023/10/24 04:12:40;;;;;;;0.10;0.10;;;10.80;99.90;;;;;;5028656;28;20045;-75
2023/10/24 04:15:06;;;;;;;0.10;0.10;;;10.90;99.90;;;;;;5029247;28;20393;-75
2023/10/24 04:17:32;;;;;;;0.10;0.10;;;10.90;99.90;;;;;;5009757;28;20037;-75
2023/10/24 04:19:58;;;;;;;0.15;0.15;;;10.90;99.90;;;;;;5009716;28;20036;-76
2023/10/24 04:22:24;;;;;;;0.17;0.17;;;10.90;99.90;;;;;;5007487;28;20034;-75
2023/10/24 04:24:50;;;;;;;0.10;0.10;;;10.90;99.90;;;;;;4994494;28;20375;-75
2023/10/24 04:27:16;;;;;;;0.20;0.20;;;10.90;99.90;;;;;;5010568;28;20053;-75
2023/10/24 04:29:42;;;;;;;0.10;0.10;;;11.00;99.90;;;;;;5010202;28;20056;-75
2023/10/24 04:32:08;;;;;;;0.10;0.10;;;11.00;99.90;;;;;;5006928;28;20053;-75
2023/10/24 04:34:33;;;;;;;0.10;0.10;;;11.00;99.90;;;;;;5003431;28;20405;-75
2023/10/24 04:37:00;;;;;;;0.10;0.10;;;11.00;99.90;;;;;;5004669;28;20049;-75
2023/10/24 04:39:27;;;;;;;0.15;0.15;;;11.00;99.90;;;;;;5005628;28;20104;-75
2023/10/24 04:41:53;;;;;;;0.20;0.20;;;11.00;99.90;;;;;;5006017;28;20068;-75
2023/10/24 04:44:19;;;;;;;0.13;0.13;;;11.00;99.90;;;;;;5006117;28;20088;-75
2023/10/24 04:46:45;;;;;;;0.20;0.20;;;11.10;99.90;;;;;;5005559;28;20464;-75
2023/10/24 04:49:11;;;;;;;0.20;0.20;;;11.10;99.90;;;;;;4992452;28;20386;-76
2023/10/24 04:51:37;;;;;;;0.10;0.10;;;11.10;99.90;;;;;;4990191;28;20120;-74
2023/10/24 04:54:03;;;;;;;0.10;0.10;;;11.10;99.90;;;;;;4995895;28;20052;-75
2023/10/24 04:56:28;;;;;;;0.15;0.15;;;11.10;99.90;;;;;;5008174;28;20042;-75
2023/10/24 04:58:56;;;;;;;0.10;0.10;;;11.10;99.90;;;;;;4994134;28;20046;-75
2023/10/24 05:01:22;;;;;;;0.10;0.10;;;11.10;99.90;;;;;;5011887;28;20096;-75
2023/10/24 05:03:47;;;;;;;0.10;0.10;;;11.20;99.90;;;;;;5006566;28;20054;-75
2023/10/24 05:06:13;;;;;;;0.10;0.10;;;11.20;99.90;;;;;;5005154;28;20124;-75
2023/10/24 05:08:39;;;;;;;0.10;0.10;;;11.20;99.90;;;;;;5006518;28;20088;-75
2023/10/24 05:11:05;;;;;;;0.10;0.10;;;11.20;99.90;;;;;;5000263;28;20030;-75
2023/10/24 05:13:30;;;;;;;0.20;0.20;;;11.20;99.90;;;;;;5004101;28;20100;-75
2023/10/24 05:15:56;;;;;;;0.10;0.10;;;11.20;99.90;;;;;;5001049;28;20433;-75
2023/10/24 05:18:22;;;;;;;0.20;0.20;;;11.20;99.90;;;;;;5008703;28;20428;-75
2023/10/24 05:20:48;;;;;;;0.10;0.10;;;11.20;99.90;;;;;;5010047;28;20052;-75
2023/10/24 05:23:14;;;;;;;0.20;0.20;;;11.20;99.90;;;;;;5009874;28;20157;-75
2023/10/24 05:25:41;;;;;;;0.10;0.10;;;11.30;99.90;;;;;;5010831;28;20144;-75
2023/10/24 05:28:07;;;;;;;0.13;0.13;;;11.30;99.90;;;;;;5010927;28;20052;-74
2023/10/24 05:30:33;;;;;;;0.10;0.10;;;11.30;99.90;;;;;;5007927;28;20527;-75
2023/10/24 05:32:58;;;;;;;1.27;0.60;;;11.30;99.90;;;;;;5011946;28;20085;-75
2023/10/24 05:35:24;;;;;;;0.10;0.10;;;11.30;99.90;;;;;;5020382;28;20048;-75
2023/10/24 05:37:50;;;;;;;0.17;0.17;;;11.30;99.90;;;;;;5010639;28;20057;-74
2023/10/24 05:40:15;;;;;;;0.10;0.10;;;11.30;99.90;;;;;;5019953;28;20043;-75
2023/10/24 05:42:41;;;;;;;0.10;0.10;;;11.30;99.90;;;;;;5008700;28;20053;-75
2023/10/24 05:45:08;;;;;;;0.10;0.10;;;11.30;99.90;;;;;;5008557;28;20482;-75
2023/10/24 05:47:33;;;;;;;0.20;0.20;;;11.40;99.90;;;;;;5025976;28;20037;-76
2023/10/24 05:49:59;;;;;;;0.20;0.20;;;11.40;99.90;;;;;;5030565;28;20088;-75
2023/10/24 05:52:25;;;;;;;0.10;0.10;;;11.40;99.90;;;;;;5029437;28;20071;-75
2023/10/24 05:54:52;;;;;;;0.15;0.15;;;11.40;99.90;;;;;;5014270;28;20049;-75
2023/10/24 05:57:18;;;;;;;0.10;0.10;;;11.40;99.90;;;;;;5002526;28;20555;-75
2023/10/24 05:59:43;;;;;;;0.10;0.10;;;11.40;99.90;;;;;;5024741;28;20041;-75
2023/10/24 06:02:09;;;;;;;0.10;0.10;;;11.40;99.90;;;;;;5028389;28;20050;-75
2023/10/24 06:04:35;;;;;;;0.10;0.10;;;11.40;99.90;;;;;;5022783;28;20108;-75
2023/10/24 06:07:02;;;;;;;0.10;0.10;;;11.40;99.90;;;;;;5026685;28;20041;-74
2023/10/24 06:09:27;;;;;;;0.10;0.10;;;11.50;99.90;;;;;;5030465;28;20033;-75
2023/10/24 06:11:53;;;;;;;0.10;0.10;;;11.40;99.90;;;;;;5009927;28;20149;-75
2023/10/24 06:14:19;;;;;;;0.10;0.10;;;11.40;99.90;;;;;;5012039;28;20110;-75
2023/10/24 06:16:45;;;;;;;0.10;0.10;;;11.40;99.90;;;;;;5028915;28;20484;-74
2023/10/24 06:19:10;;;;;;;0.10;0.10;;;11.40;99.90;;;;;;5027475;28;20120;-75
2023/10/24 06:21:36;;;;;;;0.15;0.15;;;11.50;99.90;;;;;;5031366;28;20493;-75
2023/10/24 06:24:02;;;;;;;0.20;0.20;;;11.40;99.90;;;;;;5013678;28;20500;-75
2023/10/24 06:26:28;;;;;;;0.10;0.10;;;11.40;99.90;;;;;;5011747;28;20048;-75
2023/10/24 06:28:54;;;;;;;0.10;0.10;;;11.40;99.90;;;;;;5010285;28;20111;-75
2023/10/24 06:31:20;;;;;;;0.20;0.20;;;11.40;99.90;;;;;;5026956;28;20057;-75
2023/10/24 06:33:46;;;;;;;0.20;0.20;;;11.50;99.90;;;;;;5025834;28;20057;-74
2023/10/24 06:36:12;;;;;;;0.10;0.10;;;11.50;99.90;;;;;;5024979;28;20135;-75
2023/10/24 06:38:38;;;;;;;0.13;0.13;;;11.40;99.90;;;;;;5025533;28;20499;-73
2023/10/24 06:41:07;;;;;;;0.10;0.10;;;11.50;99.90;;;;;;5011520;28;20041;-75
2023/10/24 06:43:33;;;;;;;0.15;0.15;;;11.50;99.90;;;;;;5009346;28;20064;-75
2023/10/24 06:45:58;;;;;;;0.10;0.10;;;11.40;99.90;;;;;;5010646;28;20499;-74
2023/10/24 06:48:24;;;;;;;0.10;0.10;;;11.50;99.90;;;;;;5026088;28;20049;-74
2023/10/24 06:50:49;;;;;;;0.20;0.20;;;11.50;99.90;;;;;;5012371;28;20045;-74
2023/10/24 06:53:15;;;;;;;0.10;0.10;;;11.50;99.90;;;;;;5029819;28;20662;-74
2023/10/24 06:55:41;;;;;;;0.10;0.10;;;11.50;99.90;;;;;;5026680;28;20124;-75
2023/10/24 06:58:06;;;;;;;0.10;0.10;;;11.50;99.90;;;;;;5006434;28;20049;-74
2023/10/24 07:00:32;;;;;;;0.20;0.20;;;11.50;99.90;;;;;;5008752;28;20071;-74
2023/10/24 07:02:58;;;;;;;0.10;0.10;;;11.50;99.90;;;;;;5012106;28;20041;-74
2023/10/24 07:05:24;;;;;;;0.10;0.10;;;11.50;99.90;;;;;;5030596;28;20469;-74
2023/10/24 07:07:50;;;;;;;0.20;0.20;;;11.50;99.90;;;;;;5010150;28;20080;-75
2023/10/24 07:10:16;;;;;;;0.20;0.20;;;11.50;99.90;;;;;;5012993;28;20077;-75
2023/10/24 07:12:41;;;;;;;0.10;0.10;;;11.50;99.90;;;;;;5011841;28;20081;-75
2023/10/24 07:15:08;;;;;;;0.10;0.10;;;11.50;99.90;;;;;;5009036;28;20405;-75
2023/10/24 07:17:34;;;;;;;0.10;0.10;;;11.50;99.90;;;;;;5007366;28;20541;-74
2023/10/24 07:20:00;;;;;;;0.10;0.10;;;11.50;99.90;;;;;;5010464;28;20145;-74
2023/10/24 07:22:29;;;;;;;0.10;0.10;;;11.50;99.90;;;;;;5007777;28;20041;-74
2023/10/24 07:24:54;;;;;;;0.10;0.10;;;11.50;99.90;;;;;;5002679;28;20042;-74
2023/10/24 07:27:21;;;;;;;0.10;0.10;;;11.50;99.90;;;;;;5024561;28;20555;-73
2023/10/24 07:29:46;;;;;;;0.10;0.10;;;11.50;99.90;;;;;;5004739;28;20049;-73
2023/10/24 07:32:16;;;;;;;0.20;0.20;;;11.50;99.90;;;;;;5004568;28;20413;-74
2023/10/24 07:34:41;;;;;;;0.10;0.10;;;11.50;99.90;;;;;;5007169;28;20132;-75
2023/10/24 07:37:08;;;;;;;0.10;0.10;;;11.60;99.90;;;;;;5028240;28;20124;-75
2023/10/24 07:39:34;;;;;;;0.10;0.10;;;11.50;99.90;;;;;;5011709;28;20530;-74
2023/10/24 07:42:01;;;;;;;0.20;0.20;;;11.50;99.90;;;;;;5011447;28;20045;-75
2023/10/24 07:44:26;;;;;;;0.10;0.10;;;11.50;99.90;;;;;;5003061;28;20045;-74
2023/10/24 07:46:52;;;;;;;0.10;0.10;;;11.50;99.90;;;;;;5028872;28;20160;-73
2023/10/24 07:49:18;;;;;;;0.15;0.15;;;11.50;99.90;;;;;;5024574;28;20056;-74
2023/10/24 07:51:44;;;;;;;0.20;0.20;;;11.60;99.90;;;;;;5021776;28;20056;-75
2023/10/24 07:54:11;;;;;;;0.10;0.10;;;11.50;99.90;;;;;;5027524;28;20087;-73
2023/10/24 07:56:38;;;;;;;0.10;0.10;;;11.60;99.90;;;;;;5006985;28;20054;-75
2023/10/24 07:59:04;;;;;;;0.10;0.10;;;11.50;99.90;;;;;;5014366;28;20392;-74
2023/10/24 08:01:29;;;;;;;0.20;0.20;;;11.50;99.90;;;;;;4998418;28;20052;-74
2023/10/24 08:03:55;;;;;;;0.10;0.10;;;11.60;99.90;;;;;;5004260;28;20444;-75
2023/10/24 08:06:21;;;;;;;0.15;0.15;;;11.60;99.90;;;;;;5007541;28;20053;-75
2023/10/24 08:08:47;;;;;;;0.10;0.10;;;11.60;99.90;;;;;;5008751;28;20080;-73
2023/10/24 08:11:13;;;;;;;0.10;0.10;;;11.60;99.90;;;;;;5023741;28;20030;-74
2023/10/24 08:13:39;;;;;;;0.10;0.10;;;11.70;99.90;;;;;;5005345;28;20042;-74
2023/10/24 08:16:06;;;;;;;0.10;0.10;;;11.60;99.90;;;;;;5010333;28;20068;-74
2023/10/24 08:18:32;;;;;;;0.10;0.10;;;11.70;99.90;;;;;;5011921;28;20045;-75
2023/10/24 08:20:57;;;;;;;0.20;0.20;;;11.70;99.90;;;;;;5026814;28;20531;-74
2023/10/24 08:23:23;;;;;;;0.10;0.10;;;11.70;99.90;;;;;;5024581;28;20065;-73
2023/10/24 08:25:48;;;;;;;0.20;0.20;;;11.60;99.90;;;;;;5019200;28;20136;-74
2023/10/24 08:28:14;;;;;;;0.10;0.10;;;11.70;99.90;;;;;;5003938;28;20485;-74
2023/10/24 08:30:40;;;;;;;0.10;0.10;;;11.70;99.90;;;;;;4998598;28;22579;-72
2023/10/24 08:33:06;;;;;;;0.10;0.10;;;11.60;99.90;;;;;;4999370;28;20048;-74
2023/10/24 08:35:32;;;;;;;0.10;0.10;;;11.60;99.90;;;;;;5006165;28;20050;-75
2023/10/24 08:37:58;;;;;;;0.10;0.10;;;11.60;99.90;;;;;;5013798;28;20049;-74
2023/10/24 08:40:23;;;;;;;0.10;0.10;;;11.70;99.90;;;;;;4998316;28;20037;-74
2023/10/24 08:42:49;;;;;;;0.10;0.10;;;11.60;99.90;;;;;;5004695;28;20041;-74
2023/10/24 08:45:18;;;;;;;0.10;0.10;;;11.60;99.90;;;;;;4991462;28;20045;-74
2023/10/24 08:47:47;;;;;;;0.20;0.20;;;11.60;99.90;;;;;;5003376;28;20088;-75
2023/10/24 08:50:13;;;;;;;0.10;0.10;;;11.60;99.90;;;;;;5007997;28;20491;-75
2023/10/24 08:52:39;;;;;;;0.17;0.17;;;11.60;99.90;;;;;;5005507;28;20054;-74
2023/10/24 08:55:05;;;;;;;0.10;0.10;;;11.60;99.90;;;;;;5012975;28;20508;-74
2023/10/24 08:57:39;;;;;;;0.10;0.10;;;11.60;99.90;;;;;;5000685;28;20137;-74
2023/10/24 09:00:08;;;;;;;0.20;0.20;;;11.60;99.90;;;;;;5008628;28;20041;-73
2023/10/24 09:02:35;;;;;;;0.10;0.10;;;11.60;99.90;;;;;;5011601;28;20095;-73
2023/10/24 09:05:01;;;;;;;0.20;0.20;;;11.60;99.90;;;;;;5031018;28;20130;-73
2023/10/24 09:07:27;;;;;;;0.10;0.10;;;11.70;99.90;;;;;;5028556;28;20110;-76
2023/10/24 09:09:53;;;;;;;0.10;0.10;;;11.60;99.90;;;;;;5029032;28;20455;-76
2023/10/24 09:12:21;;;;;;;0.10;0.10;;;11.60;99.90;;;;;;5012976;28;20132;-75
2023/10/24 09:14:48;;;;;;;0.10;0.10;;;11.60;99.90;;;;;;5028114;28;20048;-76
2023/10/24 09:17:17;;;;;;;0.10;0.10;;;11.60;99.90;;;;;;5011661;28;20060;-75
2023/10/24 09:19:43;;;;;;;0.20;0.20;;;11.60;99.90;;;;;;5008697;28;20049;-76
2023/10/24 09:22:10;;;;;;;0.10;0.10;;;11.60;99.90;;;;;;4996203;28;20048;-76
2023/10/24 09:24:35;;;;;;;0.13;0.13;;;11.60;99.90;;;;;;5028647;28;20037;-76
2023/10/24 09:27:01;;;;;;;0.10;0.10;;;11.70;99.90;;;;;;4995075;28;20492;-75
2023/10/24 09:29:29;;;;;;;0.10;0.10;;;11.70;99.90;;;;;;5004776;28;20045;-75
2023/10/24 09:31:58;;;;;;;0.10;0.10;;;11.70;99.90;;;;;;5013530;28;20436;-75
2023/10/24 09:34:24;;;;;;;0.10;0.10;;;11.70;99.90;;;;;;4997204;28;20045;-75
2023/10/24 09:36:50;;;;;;;0.10;0.10;;;11.70;99.90;;;;;;5014145;28;20404;-75
2023/10/24 09:39:16;;;;;;;0.10;0.10;;;11.70;99.90;;;;;;5032386;28;20038;-75
2023/10/24 09:41:47;;;;;;;0.10;0.10;;;11.70;99.90;;;;;;5031413;28;20103;-76
2023/10/24 09:44:13;;;;;;;0.10;0.10;;;11.70;99.90;;;;;;5009676;28;20041;-76
2023/10/24 09:46:39;;;;;;;0.13;0.13;;;11.70;99.90;;;;;;5031669;28;20046;-75
2023/10/24 09:49:07;;;;;;;0.10;0.10;;;11.70;99.90;;;;;;5010567;28;20103;-75
2023/10/24 09:51:37;;;;;;;0.10;0.10;;;11.70;99.90;;;;;;5010901;28;20041;-76
2023/10/24 09:54:04;;;;;;;0.10;0.10;;;11.70;99.90;;;;;;5008858;28;20054;-79
2023/10/24 09:56:31;;;;;;;0.10;0.10;;;11.70;99.90;;;;;;4994344;28;20049;-75
2023/10/24 09:58:57;;;;;;;0.10;0.10;;;11.70;99.90;;;;;;5027982;28;20469;-74
2023/10/24 10:01:24;;;;;;;0.10;0.10;;;11.70;99.90;;;;;;5028845;28;20049;-75
2023/10/24 10:03:55;;;;;;;0.13;0.13;;;11.70;99.90;;;;;;5004187;28;20033;-75
2023/10/24 10:06:21;;;;;;;0.17;0.17;;;11.70;99.90;;;;;;5006809;28;20081;-74
2023/10/24 10:08:49;;;;;;;0.10;0.10;;;11.70;99.90;;;;;;4993045;28;20552;-76
2023/10/24 10:11:15;;;;;;;0.10;0.10;;;11.70;99.90;;;;;;4991566;28;20128;-74
2023/10/24 10:13:53;;;;;;;0.20;0.20;;;11.70;99.90;;;;;;5022714;28;20132;-75
2023/10/24 10:16:41;;;;;;;0.10;0.10;;;11.70;99.90;;;;;;5028928;28;20129;-81
2023/10/24 10:19:17;;;;;;;0.20;0.20;;;11.70;99.90;;;;;;5010182;28;20049;-75
2023/10/24 10:22:11;;;;;;;0.10;0.10;;;11.70;99.90;;;;;;5008223;28;20117;-75
2023/10/24 10:24:55;;;;;;;0.10;0.10;;;11.70;99.90;;;;;;5012684;28;20100;-75
2023/10/24 10:27:36;;;;;;;0.13;0.13;;;11.70;99.90;;;;;;5005283;28;20041;-75
2023/10/24 10:30:34;;;;;;;0.20;0.20;;;11.70;99.90;;;;;;5013767;28;20046;-74
2023/10/24 10:33:12;;;;;;;0.10;0.10;;;11.70;99.90;;;;;;5029713;28;20049;-75
2023/10/24 10:35:56;;;;;;;0.10;0.10;;;11.70;99.90;;;;;;5006844;28;20052;-75
2023/10/24 10:38:43;;;;;;;0.15;0.15;;;11.60;99.90;;;;;;5028059;28;20073;-75
2023/10/24 10:41:32;;;;;;;0.10;0.10;;;11.60;99.90;;;;;;5023477;28;20067;-75
2023/10/24 10:44:02;;;;;;;0.15;0.15;;;11.60;99.90;;;;;;5026344;28;20045;-75
2023/10/24 10:46:32;;;;;;;0.17;0.17;;;11.60;99.90;;;;;;5005711;28;20581;-75
2023/10/24 10:49:03;;;;;;;0.13;0.13;;;11.60;99.90;;;;;;5006807;28;20049;-73
2023/10/24 10:51:36;;;;;;;0.20;0.20;;;11.60;99.90;;;;;;5012852;28;20071;-75
2023/10/24 10:54:33;;;;;;;0.10;0.10;;;11.60;99.90;;;;;;5006671;28;20156;-76
2023/10/24 10:57:03;;;;;;;0.10;0.10;;;11.70;99.90;;;;;;4993881;28;20486;-75
2023/10/24 10:59:44;;;;;;;0.20;0.20;;;11.70;99.90;;;;;;4996897;28;20045;-74
2023/10/24 11:02:23;;;;;;;0.10;0.10;;;11.80;99.90;;;;;;5006819;28;20136;-75
2023/10/24 11:04:49;;;;;;;0.10;0.10;;;11.80;99.90;;;;;;4995699;28;20103;-79
2023/10/24 11:07:15;;;;;;;0.10;0.10;;;11.80;99.90;;;;;;4992585;28;20052;-77
2023/10/24 11:09:41;;;;;;;0.10;0.10;;;11.80;99.90;;;;;;4993195;28;20050;-78
2023/10/24 11:12:28;;;;;;;0.10;0.10;;;11.90;99.90;;;;;;4998460;28;20072;-77
2023/10/24 11:15:06;;;;;;;0.10;0.10;;;11.90;99.90;;;;;;5010240;28;20037;-78
2023/10/24 11:17:33;;;;;;;0.10;0.10;;;11.90;99.90;;;;;;5028323;28;20116;-78
2023/10/24 11:20:00;;;;;;;0.10;0.10;;;12.00;99.90;;;;;;5013454;28;20100;-78
2023/10/24 11:22:26;;;;;;;0.10;0.10;;;12.00;99.90;;;;;;5026696;28;20319;-79
2023/10/24 11:24:52;;;;;;;0.10;0.10;;;12.00;99.90;;;;;;5007216;28;20092;-75
2023/10/24 11:27:22;;;;;;;0.10;0.10;;;12.10;99.90;;;;;;4991765;28;20050;-78
2023/10/24 11:29:48;;;;;;;0.17;0.17;;;12.10;99.90;;;;;;5024166;28;20464;-77
2023/10/24 11:32:14;;;;;;;0.10;0.10;;;12.10;99.90;;;;;;5025651;28;20539;-78
2023/10/24 11:34:40;;;;;;;0.10;0.10;;;12.10;99.90;;;;;;5002500;28;20050;-78
2023/10/24 11:37:08;;;;;;;0.10;0.10;;;12.10;99.90;;;;;;4990796;28;20072;-77
2023/10/24 11:39:34;;;;;;;0.10;0.10;;;12.10;99.90;;;;;;4998818;28;20045;-77
2023/10/24 11:42:01;;;;;;;0.10;0.10;;;12.20;99.90;;;;;;4989789;28;20553;-77
2023/10/24 11:44:27;;;;;;;0.20;0.20;;;12.20;99.90;;;;;;4988766;28;20054;-77
2023/10/24 11:46:52;;;;;;;0.10;0.10;;;12.10;99.90;;;;;;4989840;28;20401;-77
2023/10/24 11:49:18;;;;;;;0.10;0.10;;;12.20;99.90;;;;;;5008857;28;20053;-81
2023/10/24 11:51:44;;;;;;;0.10;0.10;;;12.20;99.90;;;;;;5009528;28;20338;-76
2023/10/24 11:54:11;;;;;;;0.13;0.13;;;12.20;99.90;;;;;;5009723;28;20154;-77
2023/10/24 11:56:38;;;;;;;0.10;0.10;;;12.20;99.90;;;;;;5006447;28;20046;-76
2023/10/24 11:59:04;;;;;;;0.10;0.10;;;12.20;99.90;;;;;;5010360;28;20095;-76
2023/10/24 12:01:33;;;;;;;0.10;0.10;;;12.20;99.90;;;;;;5009786;28;20421;-77
2023/10/24 12:04:00;;;;;;;0.10;0.10;;;12.20;99.90;;;;;;5009461;28;20053;-77
2023/10/24 12:06:29;;;;;;;0.10;0.10;;;12.20;99.90;;;;;;5013904;28;20088;-76
2023/10/24 12:08:57;;;;;;;0.20;0.20;;;12.10;99.90;;;;;;5014778;28;20049;-76
2023/10/24 12:11:23;;;;;;;0.10;0.10;;;12.20;99.90;;;;;;5010236;28;20104;-77
2023/10/24 12:13:50;;;;;;;0.10;0.10;;;12.20;99.90;;;;;;5012817;28;20140;-77
2023/10/24 12:16:16;;;;;;;0.20;0.20;;;12.20;99.90;;;;;;5014079;28;20050;-77
2023/10/24 12:18:41;;;;;;;0.10;0.10;;;12.10;99.90;;;;;;5010673;28;20053;-77
2023/10/24 12:21:09;;;;;;;0.10;0.10;;;12.20;99.90;;;;;;5014310;28;20046;-77
2023/10/24 12:23:36;;;;;;;0.10;0.10;;;12.20;99.90;;;;;;5012561;28;20034;-77
2023/10/24 12:26:04;;;;;;;0.20;0.20;;;12.20;99.90;;;;;;5013413;28;20043;-76
2023/10/24 12:28:30;;;;;;;0.20;0.20;;;12.20;99.90;;;;;;4996791;28;20391;-76
2023/10/24 12:30:55;;;;;;;0.17;0.17;;;12.20;99.90;;;;;;4999552;28;20108;-76
2023/10/24 12:33:21;;;;;;;0.10;0.10;;;12.20;99.90;;;;;;5016871;28;20120;-77
2023/10/24 12:35:47;;;;;;;0.10;0.10;;;12.10;99.90;;;;;;5031474;28;20050;-76
2023/10/24 12:38:13;;;;;;;0.10;0.10;;;12.10;99.90;;;;;;5030890;28;20045;-77
2023/10/24 12:40:39;;;;;;;0.10;0.10;;;12.20;99.90;;;;;;5031991;28;20048;-77
2023/10/24 12:43:05;;;;;;;0.10;0.10;;;12.20;99.90;;;;;;5030739;28;20404;-77
2023/10/24 12:45:30;;;;;;;0.10;0.10;;;12.20;99.90;;;;;;5030831;28;20042;-77
2023/10/24 12:47:59;;;;;;;0.20;0.20;;;12.20;99.90;;;;;;5014655;28;20416;-75